sensor_id;sensor_type;location;lat;lon;timestamp;P1;durP1;ratioP1;P2;durP2;ratioP2
24453;SDS011;12627;50.860;5.714;2022-12-07T00:02:06;17.97;;;11.50;;
24453;SDS011;12627;50.860;5.714;2022-12-07T00:04:34;13.43;;;10.30;;
24453;SDS011;12627;50.860;5.714;2022-12-07T00:07:01;17.50;;;11.70;;
24453;SDS011;12627;50.860;5.714;2022-12-07T00:09:29;16.70;;;12.20;;
24453;SDS011;12627;50.860;5.714;2022-12-07T00:11:57;16.90;;;12.10;;
24453;SDS011;12627;50.860;5.714;2022-12-07T00:14:25;13.07;;;10.23;;
24453;SDS011;12627;50.860;5.714;2022-12-07T00:16:52;13.67;;;10.27;;
24453;SDS011;12627;50.860;5.714;2022-12-07T00:19:19;16.70;;;10.90;;
24453;SDS011;12627;50.860;5.714;2022-12-07T00:21:46;17.00;;;10.33;;
24453;SDS011;12627;50.860;5.714;2022-12-07T00:24:14;15.67;;;11.00;;
24453;SDS011;12627;50.860;5.714;2022-12-07T00:26:41;16.33;;;10.77;;
24453;SDS011;12627;50.860;5.714;2022-12-07T00:29:13;17.43;;;12.53;;
24453;SDS011;12627;50.860;5.714;2022-12-07T00:31:42;16.77;;;11.77;;
24453;SDS011;12627;50.860;5.714;2022-12-07T00:34:12;21.17;;;12.03;;
24453;SDS011;12627;50.860;5.714;2022-12-07T00:36:41;18.27;;;13.63;;
24453;SDS011;12627;50.860;5.714;2022-12-07T00:39:08;17.40;;;12.60;;
24453;SDS011;12627;50.860;5.714;2022-12-07T00:41:35;20.17;;;14.13;;
24453;SDS011;12627;50.860;5.714;2022-12-07T00:44:03;20.37;;;13.73;;
24453;SDS011;12627;50.860;5.714;2022-12-07T00:46:31;23.60;;;12.83;;
24453;SDS011;12627;50.860;5.714;2022-12-07T00:48:59;19.50;;;14.13;;
24453;SDS011;12627;50.860;5.714;2022-12-07T00:51:26;20.03;;;14.70;;
24453;SDS011;12627;50.860;5.714;2022-12-07T00:53:53;19.83;;;14.17;;
24453;SDS011;12627;50.860;5.714;2022-12-07T00:56:21;22.20;;;14.90;;
24453;SDS011;12627;50.860;5.714;2022-12-07T00:58:51;16.43;;;12.23;;
24453;SDS011;12627;50.860;5.714;2022-12-07T01:01:19;17.07;;;11.37;;
24453;SDS011;12627;50.860;5.714;2022-12-07T01:03:47;17.10;;;12.37;;
24453;SDS011;12627;50.860;5.714;2022-12-07T01:06:15;20.33;;;13.77;;
24453;SDS011;12627;50.860;5.714;2022-12-07T01:08:43;19.17;;;12.30;;
24453;SDS011;12627;50.860;5.714;2022-12-07T01:11:12;16.67;;;12.70;;
24453;SDS011;12627;50.860;5.714;2022-12-07T01:13:40;17.53;;;12.90;;
24453;SDS011;12627;50.860;5.714;2022-12-07T01:16:10;16.53;;;11.97;;
24453;SDS011;12627;50.860;5.714;2022-12-07T01:18:38;20.00;;;12.43;;
24453;SDS011;12627;50.860;5.714;2022-12-07T01:21:08;18.10;;;11.53;;
24453;SDS011;12627;50.860;5.714;2022-12-07T01:23:37;17.87;;;11.97;;
24453;SDS011;12627;50.860;5.714;2022-12-07T01:26:05;25.10;;;13.53;;
24453;SDS011;12627;50.860;5.714;2022-12-07T01:28:34;20.17;;;12.30;;
24453;SDS011;12627;50.860;5.714;2022-12-07T01:31:02;22.03;;;15.60;;
24453;SDS011;12627;50.860;5.714;2022-12-07T01:33:31;16.73;;;12.47;;
24453;SDS011;12627;50.860;5.714;2022-12-07T01:36:02;24.10;;;13.40;;
24453;SDS011;12627;50.860;5.714;2022-12-07T01:38:32;23.97;;;15.00;;
24453;SDS011;12627;50.860;5.714;2022-12-07T01:41:00;18.83;;;14.03;;
24453;SDS011;12627;50.860;5.714;2022-12-07T01:43:29;20.70;;;12.53;;
24453;SDS011;12627;50.860;5.714;2022-12-07T01:45:58;22.83;;;13.90;;
24453;SDS011;12627;50.860;5.714;2022-12-07T01:48:26;18.67;;;13.83;;
24453;SDS011;12627;50.860;5.714;2022-12-07T01:50:59;21.00;;;13.13;;
24453;SDS011;12627;50.860;5.714;2022-12-07T01:53:28;19.20;;;12.77;;
24453;SDS011;12627;50.860;5.714;2022-12-07T01:55:58;19.73;;;12.13;;
24453;SDS011;12627;50.860;5.714;2022-12-07T01:58:26;22.10;;;13.30;;
24453;SDS011;12627;50.860;5.714;2022-12-07T02:00:54;21.40;;;13.67;;
24453;SDS011;12627;50.860;5.714;2022-12-07T02:03:22;17.37;;;13.80;;
24453;SDS011;12627;50.860;5.714;2022-12-07T02:05:53;18.07;;;13.30;;
24453;SDS011;12627;50.860;5.714;2022-12-07T02:08:21;17.57;;;12.60;;
24453;SDS011;12627;50.860;5.714;2022-12-07T02:10:50;22.83;;;15.40;;
24453;SDS011;12627;50.860;5.714;2022-12-07T02:13:18;20.43;;;14.13;;
24453;SDS011;12627;50.860;5.714;2022-12-07T02:15:51;24.43;;;15.60;;
24453;SDS011;12627;50.860;5.714;2022-12-07T02:18:34;18.67;;;13.60;;
24453;SDS011;12627;50.860;5.714;2022-12-07T02:21:16;20.67;;;13.87;;
24453;SDS011;12627;50.860;5.714;2022-12-07T02:24:06;18.07;;;12.83;;
24453;SDS011;12627;50.860;5.714;2022-12-07T02:27:10;20.27;;;12.70;;
24453;SDS011;12627;50.860;5.714;2022-12-07T02:30:03;18.03;;;12.13;;
24453;SDS011;12627;50.860;5.714;2022-12-07T02:32:34;15.77;;;11.70;;
24453;SDS011;12627;50.860;5.714;2022-12-07T02:35:11;15.87;;;12.63;;
24453;SDS011;12627;50.860;5.714;2022-12-07T02:37:42;23.93;;;13.50;;
24453;SDS011;12627;50.860;5.714;2022-12-07T02:40:16;17.00;;;11.77;;
24453;SDS011;12627;50.860;5.714;2022-12-07T02:42:47;17.03;;;13.07;;
24453;SDS011;12627;50.860;5.714;2022-12-07T02:45:20;17.93;;;12.50;;
24453;SDS011;12627;50.860;5.714;2022-12-07T02:47:50;19.87;;;11.93;;
24453;SDS011;12627;50.860;5.714;2022-12-07T02:50:20;20.57;;;12.73;;
24453;SDS011;12627;50.860;5.714;2022-12-07T02:52:48;20.70;;;13.87;;
24453;SDS011;12627;50.860;5.714;2022-12-07T02:55:15;17.53;;;12.93;;
24453;SDS011;12627;50.860;5.714;2022-12-07T02:57:49;17.00;;;12.83;;
24453;SDS011;12627;50.860;5.714;2022-12-07T03:00:34;18.80;;;12.87;;
24453;SDS011;12627;50.860;5.714;2022-12-07T03:03:09;17.87;;;13.33;;
24453;SDS011;12627;50.860;5.714;2022-12-07T03:05:51;20.07;;;13.27;;
24453;SDS011;12627;50.860;5.714;2022-12-07T03:08:35;24.03;;;17.40;;
24453;SDS011;12627;50.860;5.714;2022-12-07T03:11:10;19.47;;;13.57;;
24453;SDS011;12627;50.860;5.714;2022-12-07T03:13:41;15.87;;;11.90;;
24453;SDS011;12627;50.860;5.714;2022-12-07T03:16:17;21.80;;;13.17;;
24453;SDS011;12627;50.860;5.714;2022-12-07T03:18:49;20.97;;;13.60;;
24453;SDS011;12627;50.860;5.714;2022-12-07T03:21:21;17.97;;;13.13;;
24453;SDS011;12627;50.860;5.714;2022-12-07T03:23:53;19.60;;;13.33;;
24453;SDS011;12627;50.860;5.714;2022-12-07T03:26:24;19.50;;;12.60;;
24453;SDS011;12627;50.860;5.714;2022-12-07T03:28:58;20.37;;;13.70;;
24453;SDS011;12627;50.860;5.714;2022-12-07T03:31:31;22.30;;;14.03;;
24453;SDS011;12627;50.860;5.714;2022-12-07T03:34:04;23.70;;;14.10;;
24453;SDS011;12627;50.860;5.714;2022-12-07T03:36:37;24.77;;;14.80;;
24453;SDS011;12627;50.860;5.714;2022-12-07T03:39:11;23.20;;;15.37;;
24453;SDS011;12627;50.860;5.714;2022-12-07T03:41:44;23.83;;;15.50;;
24453;SDS011;12627;50.860;5.714;2022-12-07T03:44:12;22.60;;;15.30;;
24453;SDS011;12627;50.860;5.714;2022-12-07T03:46:43;23.47;;;16.17;;
24453;SDS011;12627;50.860;5.714;2022-12-07T03:49:18;24.53;;;14.87;;
24453;SDS011;12627;50.860;5.714;2022-12-07T03:51:54;24.03;;;16.70;;
24453;SDS011;12627;50.860;5.714;2022-12-07T03:54:28;21.87;;;15.20;;
24453;SDS011;12627;50.860;5.714;2022-12-07T03:56:59;24.47;;;16.63;;
24453;SDS011;12627;50.860;5.714;2022-12-07T03:59:29;23.27;;;16.33;;
24453;SDS011;12627;50.860;5.714;2022-12-07T04:02:01;26.30;;;18.00;;
24453;SDS011;12627;50.860;5.714;2022-12-07T04:04:29;25.63;;;18.03;;
24453;SDS011;12627;50.860;5.714;2022-12-07T04:06:57;32.10;;;21.57;;
24453;SDS011;12627;50.860;5.714;2022-12-07T04:09:24;28.13;;;20.23;;
24453;SDS011;12627;50.860;5.714;2022-12-07T04:11:51;24.63;;;17.90;;
24453;SDS011;12627;50.860;5.714;2022-12-07T04:14:19;28.77;;;21.07;;
24453;SDS011;12627;50.860;5.714;2022-12-07T04:16:46;33.33;;;21.73;;
24453;SDS011;12627;50.860;5.714;2022-12-07T04:19:16;26.67;;;20.60;;
24453;SDS011;12627;50.860;5.714;2022-12-07T04:21:44;32.53;;;22.13;;
24453;SDS011;12627;50.860;5.714;2022-12-07T04:24:13;29.03;;;19.37;;
24453;SDS011;12627;50.860;5.714;2022-12-07T04:26:41;28.87;;;17.33;;
24453;SDS011;12627;50.860;5.714;2022-12-07T04:29:09;22.77;;;15.97;;
24453;SDS011;12627;50.860;5.714;2022-12-07T04:31:37;30.30;;;17.73;;
24453;SDS011;12627;50.860;5.714;2022-12-07T04:34:05;27.33;;;15.47;;
24453;SDS011;12627;50.860;5.714;2022-12-07T04:36:34;27.07;;;17.20;;
24453;SDS011;12627;50.860;5.714;2022-12-07T04:39:02;27.47;;;18.43;;
24453;SDS011;12627;50.860;5.714;2022-12-07T04:41:30;25.87;;;17.07;;
24453;SDS011;12627;50.860;5.714;2022-12-07T04:43:58;28.07;;;18.53;;
24453;SDS011;12627;50.860;5.714;2022-12-07T04:46:26;28.43;;;18.27;;
24453;SDS011;12627;50.860;5.714;2022-12-07T04:48:55;26.40;;;17.50;;
24453;SDS011;12627;50.860;5.714;2022-12-07T04:51:23;29.63;;;19.30;;
24453;SDS011;12627;50.860;5.714;2022-12-07T04:53:53;28.47;;;18.27;;
24453;SDS011;12627;50.860;5.714;2022-12-07T04:56:21;28.93;;;17.87;;
24453;SDS011;12627;50.860;5.714;2022-12-07T04:58:50;28.53;;;18.83;;
24453;SDS011;12627;50.860;5.714;2022-12-07T05:01:19;26.23;;;17.80;;
24453;SDS011;12627;50.860;5.714;2022-12-07T05:03:47;26.57;;;17.60;;
24453;SDS011;12627;50.860;5.714;2022-12-07T05:06:15;30.27;;;18.67;;
24453;SDS011;12627;50.860;5.714;2022-12-07T05:08:43;21.07;;;15.30;;
24453;SDS011;12627;50.860;5.714;2022-12-07T05:11:11;30.17;;;17.87;;
24453;SDS011;12627;50.860;5.714;2022-12-07T05:14:00;28.07;;;17.67;;
24453;SDS011;12627;50.860;5.714;2022-12-07T05:16:27;31.97;;;21.47;;
24453;SDS011;12627;50.860;5.714;2022-12-07T05:18:55;28.43;;;17.43;;
24453;SDS011;12627;50.860;5.714;2022-12-07T05:21:22;27.20;;;16.50;;
24453;SDS011;12627;50.860;5.714;2022-12-07T05:23:50;26.20;;;17.50;;
24453;SDS011;12627;50.860;5.714;2022-12-07T05:26:18;25.67;;;16.03;;
24453;SDS011;12627;50.860;5.714;2022-12-07T05:28:49;23.77;;;16.57;;
24453;SDS011;12627;50.860;5.714;2022-12-07T05:31:17;27.07;;;17.67;;
24453;SDS011;12627;50.860;5.714;2022-12-07T05:33:45;21.93;;;15.63;;
24453;SDS011;12627;50.860;5.714;2022-12-07T05:36:12;46.13;;;18.10;;
24453;SDS011;12627;50.860;5.714;2022-12-07T05:38:39;23.77;;;17.57;;
24453;SDS011;12627;50.860;5.714;2022-12-07T05:41:07;25.67;;;16.33;;
24453;SDS011;12627;50.860;5.714;2022-12-07T05:43:56;26.30;;;16.93;;
24453;SDS011;12627;50.860;5.714;2022-12-07T05:46:23;24.27;;;16.60;;
24453;SDS011;12627;50.860;5.714;2022-12-07T05:48:50;25.83;;;17.23;;
24453;SDS011;12627;50.860;5.714;2022-12-07T05:51:18;23.77;;;16.97;;
24453;SDS011;12627;50.860;5.714;2022-12-07T05:53:45;23.83;;;17.17;;
24453;SDS011;12627;50.860;5.714;2022-12-07T05:56:12;27.17;;;16.40;;
24453;SDS011;12627;50.860;5.714;2022-12-07T05:58:40;30.77;;;19.20;;
24453;SDS011;12627;50.860;5.714;2022-12-07T06:01:26;28.30;;;17.23;;
24453;SDS011;12627;50.860;5.714;2022-12-07T06:03:53;32.80;;;18.77;;
24453;SDS011;12627;50.860;5.714;2022-12-07T06:06:20;30.90;;;18.47;;
24453;SDS011;12627;50.860;5.714;2022-12-07T06:08:48;30.37;;;18.50;;
24453;SDS011;12627;50.860;5.714;2022-12-07T06:11:15;24.60;;;16.80;;
24453;SDS011;12627;50.860;5.714;2022-12-07T06:14:00;29.13;;;18.23;;
24453;SDS011;12627;50.860;5.714;2022-12-07T06:16:28;26.20;;;18.33;;
24453;SDS011;12627;50.860;5.714;2022-12-07T06:18:55;29.57;;;17.67;;
24453;SDS011;12627;50.860;5.714;2022-12-07T06:21:23;25.20;;;16.37;;
24453;SDS011;12627;50.860;5.714;2022-12-07T06:23:52;25.17;;;17.50;;
24453;SDS011;12627;50.860;5.714;2022-12-07T06:26:19;26.73;;;16.87;;
24453;SDS011;12627;50.860;5.714;2022-12-07T06:28:47;22.83;;;16.30;;
24453;SDS011;12627;50.860;5.714;2022-12-07T06:31:14;23.23;;;15.33;;
24453;SDS011;12627;50.860;5.714;2022-12-07T06:33:42;28.37;;;16.27;;
24453;SDS011;12627;50.860;5.714;2022-12-07T06:36:10;25.43;;;17.13;;
24453;SDS011;12627;50.860;5.714;2022-12-07T06:38:37;25.73;;;17.17;;
24453;SDS011;12627;50.860;5.714;2022-12-07T06:41:04;21.90;;;14.77;;
24453;SDS011;12627;50.860;5.714;2022-12-07T06:43:32;25.93;;;15.23;;
24453;SDS011;12627;50.860;5.714;2022-12-07T06:46:00;23.90;;;16.47;;
24453;SDS011;12627;50.860;5.714;2022-12-07T06:48:27;24.93;;;16.97;;
24453;SDS011;12627;50.860;5.714;2022-12-07T06:50:56;21.27;;;14.20;;
24453;SDS011;12627;50.860;5.714;2022-12-07T06:53:23;26.77;;;17.87;;
24453;SDS011;12627;50.860;5.714;2022-12-07T06:55:50;22.83;;;16.10;;
24453;SDS011;12627;50.860;5.714;2022-12-07T06:58:18;20.23;;;13.60;;
24453;SDS011;12627;50.860;5.714;2022-12-07T07:00:45;29.63;;;17.57;;
24453;SDS011;12627;50.860;5.714;2022-12-07T07:03:14;24.10;;;15.70;;
24453;SDS011;12627;50.860;5.714;2022-12-07T07:05:41;28.80;;;18.93;;
24453;SDS011;12627;50.860;5.714;2022-12-07T07:08:10;26.63;;;17.43;;
24453;SDS011;12627;50.860;5.714;2022-12-07T07:10:37;21.40;;;15.33;;
24453;SDS011;12627;50.860;5.714;2022-12-07T07:13:05;23.53;;;15.53;;
24453;SDS011;12627;50.860;5.714;2022-12-07T07:15:33;25.80;;;16.47;;
24453;SDS011;12627;50.860;5.714;2022-12-07T07:18:03;24.70;;;16.17;;
24453;SDS011;12627;50.860;5.714;2022-12-07T07:20:30;32.03;;;19.00;;
24453;SDS011;12627;50.860;5.714;2022-12-07T07:22:58;28.97;;;17.67;;
24453;SDS011;12627;50.860;5.714;2022-12-07T07:25:27;27.50;;;15.83;;
24453;SDS011;12627;50.860;5.714;2022-12-07T07:27:54;32.73;;;18.03;;
24453;SDS011;12627;50.860;5.714;2022-12-07T07:30:21;29.40;;;19.13;;
24453;SDS011;12627;50.860;5.714;2022-12-07T07:32:48;37.90;;;20.23;;
24453;SDS011;12627;50.860;5.714;2022-12-07T07:35:16;32.57;;;19.37;;
24453;SDS011;12627;50.860;5.714;2022-12-07T07:37:43;27.67;;;18.37;;
24453;SDS011;12627;50.860;5.714;2022-12-07T07:40:10;28.30;;;17.97;;
24453;SDS011;12627;50.860;5.714;2022-12-07T07:42:39;27.10;;;17.13;;
24453;SDS011;12627;50.860;5.714;2022-12-07T07:45:07;29.80;;;17.67;;
24453;SDS011;12627;50.860;5.714;2022-12-07T07:47:35;26.10;;;16.93;;
24453;SDS011;12627;50.860;5.714;2022-12-07T07:50:02;26.73;;;16.77;;
24453;SDS011;12627;50.860;5.714;2022-12-07T07:52:30;21.60;;;15.30;;
24453;SDS011;12627;50.860;5.714;2022-12-07T07:54:58;25.33;;;17.27;;
24453;SDS011;12627;50.860;5.714;2022-12-07T07:57:25;31.27;;;16.63;;
24453;SDS011;12627;50.860;5.714;2022-12-07T07:59:54;27.90;;;16.97;;
24453;SDS011;12627;50.860;5.714;2022-12-07T08:02:22;31.73;;;16.63;;
24453;SDS011;12627;50.860;5.714;2022-12-07T08:04:49;28.93;;;17.17;;
24453;SDS011;12627;50.860;5.714;2022-12-07T08:07:16;28.03;;;18.20;;
24453;SDS011;12627;50.860;5.714;2022-12-07T08:09:44;26.67;;;16.13;;
24453;SDS011;12627;50.860;5.714;2022-12-07T08:12:11;27.13;;;16.37;;
24453;SDS011;12627;50.860;5.714;2022-12-07T08:14:38;25.40;;;15.87;;
24453;SDS011;12627;50.860;5.714;2022-12-07T08:17:08;26.10;;;16.60;;
24453;SDS011;12627;50.860;5.714;2022-12-07T08:19:35;26.70;;;15.97;;
24453;SDS011;12627;50.860;5.714;2022-12-07T08:22:02;27.50;;;14.40;;
24453;SDS011;12627;50.860;5.714;2022-12-07T08:24:29;21.37;;;15.07;;
24453;SDS011;12627;50.860;5.714;2022-12-07T08:26:59;22.57;;;14.80;;
24453;SDS011;12627;50.860;5.714;2022-12-07T08:29:26;24.63;;;15.77;;
24453;SDS011;12627;50.860;5.714;2022-12-07T08:31:54;24.03;;;15.60;;
24453;SDS011;12627;50.860;5.714;2022-12-07T08:34:22;25.43;;;16.00;;
24453;SDS011;12627;50.860;5.714;2022-12-07T08:36:50;20.43;;;14.07;;
24453;SDS011;12627;50.860;5.714;2022-12-07T08:39:17;21.27;;;14.83;;
24453;SDS011;12627;50.860;5.714;2022-12-07T08:41:44;20.73;;;14.40;;
24453;SDS011;12627;50.860;5.714;2022-12-07T08:44:11;21.37;;;14.23;;
24453;SDS011;12627;50.860;5.714;2022-12-07T08:46:39;21.47;;;13.73;;
24453;SDS011;12627;50.860;5.714;2022-12-07T08:49:11;23.33;;;13.93;;
24453;SDS011;12627;50.860;5.714;2022-12-07T08:51:41;21.57;;;14.53;;
24453;SDS011;12627;50.860;5.714;2022-12-07T08:54:10;18.63;;;12.60;;
24453;SDS011;12627;50.860;5.714;2022-12-07T08:56:40;19.90;;;14.03;;
24453;SDS011;12627;50.860;5.714;2022-12-07T08:59:08;18.63;;;12.73;;
24453;SDS011;12627;50.860;5.714;2022-12-07T09:01:35;16.97;;;12.83;;
24453;SDS011;12627;50.860;5.714;2022-12-07T09:04:02;22.17;;;14.27;;
24453;SDS011;12627;50.860;5.714;2022-12-07T09:06:30;19.37;;;12.13;;
24453;SDS011;12627;50.860;5.714;2022-12-07T09:08:59;22.80;;;14.07;;
24453;SDS011;12627;50.860;5.714;2022-12-07T09:11:27;22.43;;;11.87;;
24453;SDS011;12627;50.860;5.714;2022-12-07T09:13:55;19.63;;;11.87;;
24453;SDS011;12627;50.860;5.714;2022-12-07T09:16:22;21.53;;;13.70;;
24453;SDS011;12627;50.860;5.714;2022-12-07T09:18:49;21.73;;;13.13;;
24453;SDS011;12627;50.860;5.714;2022-12-07T09:21:17;19.07;;;12.73;;
24453;SDS011;12627;50.860;5.714;2022-12-07T09:23:44;19.90;;;13.80;;
24453;SDS011;12627;50.860;5.714;2022-12-07T09:26:13;17.57;;;12.00;;
24453;SDS011;12627;50.860;5.714;2022-12-07T09:28:40;16.40;;;12.30;;
24453;SDS011;12627;50.860;5.714;2022-12-07T09:31:08;18.43;;;12.80;;
24453;SDS011;12627;50.860;5.714;2022-12-07T09:33:35;19.57;;;12.37;;
24453;SDS011;12627;50.860;5.714;2022-12-07T09:36:03;18.37;;;12.93;;
24453;SDS011;12627;50.860;5.714;2022-12-07T09:38:31;15.50;;;11.40;;
24453;SDS011;12627;50.860;5.714;2022-12-07T09:41:03;15.43;;;10.67;;
24453;SDS011;12627;50.860;5.714;2022-12-07T09:43:33;13.70;;;10.77;;
24453;SDS011;12627;50.860;5.714;2022-12-07T09:46:02;13.80;;;10.87;;
24453;SDS011;12627;50.860;5.714;2022-12-07T09:48:31;15.77;;;11.33;;
24453;SDS011;12627;50.860;5.714;2022-12-07T09:51:02;16.27;;;11.53;;
24453;SDS011;12627;50.860;5.714;2022-12-07T09:53:37;15.47;;;10.43;;
24453;SDS011;12627;50.860;5.714;2022-12-07T09:56:05;14.77;;;9.93;;
24453;SDS011;12627;50.860;5.714;2022-12-07T09:58:34;18.27;;;10.73;;
24453;SDS011;12627;50.860;5.714;2022-12-07T10:01:05;15.10;;;10.47;;
24453;SDS011;12627;50.860;5.714;2022-12-07T10:03:39;12.93;;;10.43;;
24453;SDS011;12627;50.860;5.714;2022-12-07T10:06:11;16.13;;;10.83;;
24453;SDS011;12627;50.860;5.714;2022-12-07T10:11:10;14.43;;;10.67;;
24453;SDS011;12627;50.860;5.714;2022-12-07T10:13:42;16.10;;;11.60;;
24453;SDS011;12627;50.860;5.714;2022-12-07T10:16:26;16.63;;;10.80;;
24453;SDS011;12627;50.860;5.714;2022-12-07T10:19:17;21.93;;;12.10;;
24453;SDS011;12627;50.860;5.714;2022-12-07T10:21:59;15.67;;;10.40;;
24453;SDS011;12627;50.860;5.714;2022-12-07T10:24:28;12.20;;;9.30;;
24453;SDS011;12627;50.860;5.714;2022-12-07T10:26:56;14.53;;;9.50;;
24453;SDS011;12627;50.860;5.714;2022-12-07T10:29:28;13.07;;;9.87;;
24453;SDS011;12627;50.860;5.714;2022-12-07T10:31:57;14.80;;;9.37;;
24453;SDS011;12627;50.860;5.714;2022-12-07T10:34:27;14.33;;;10.10;;
24453;SDS011;12627;50.860;5.714;2022-12-07T10:37:07;14.77;;;9.53;;
24453;SDS011;12627;50.860;5.714;2022-12-07T10:39:42;12.43;;;8.70;;
24453;SDS011;12627;50.860;5.714;2022-12-07T10:42:18;11.90;;;9.53;;
24453;SDS011;12627;50.860;5.714;2022-12-07T10:44:48;12.37;;;8.43;;
24453;SDS011;12627;50.860;5.714;2022-12-07T10:47:20;13.87;;;9.60;;
24453;SDS011;12627;50.860;5.714;2022-12-07T10:50:07;13.43;;;8.47;;
24453;SDS011;12627;50.860;5.714;2022-12-07T10:52:59;13.07;;;9.67;;
24453;SDS011;12627;50.860;5.714;2022-12-07T10:55:50;15.07;;;10.10;;
24453;SDS011;12627;50.860;5.714;2022-12-07T10:58:35;14.03;;;8.47;;
24453;SDS011;12627;50.860;5.714;2022-12-07T11:01:13;9.70;;;8.60;;
24453;SDS011;12627;50.860;5.714;2022-12-07T11:03:49;15.70;;;9.07;;
24453;SDS011;12627;50.860;5.714;2022-12-07T11:06:32;11.43;;;9.10;;
24453;SDS011;12627;50.860;5.714;2022-12-07T11:09:05;14.57;;;9.07;;
24453;SDS011;12627;50.860;5.714;2022-12-07T11:11:54;10.57;;;7.77;;
24453;SDS011;12627;50.860;5.714;2022-12-07T11:14:28;8.60;;;6.87;;
24453;SDS011;12627;50.860;5.714;2022-12-07T11:17:05;12.70;;;7.53;;
24453;SDS011;12627;50.860;5.714;2022-12-07T11:19:53;13.63;;;7.40;;
24453;SDS011;12627;50.860;5.714;2022-12-07T11:22:29;8.10;;;6.63;;
24453;SDS011;12627;50.860;5.714;2022-12-07T11:25:14;7.17;;;6.10;;
24453;SDS011;12627;50.860;5.714;2022-12-07T11:27:50;12.32;;;6.28;;
24453;SDS011;12627;50.860;5.714;2022-12-07T11:30:31;7.80;;;5.63;;
24453;SDS011;12627;50.860;5.714;2022-12-07T11:33:09;6.10;;;4.85;;
24453;SDS011;12627;50.860;5.714;2022-12-07T11:35:46;9.70;;;5.45;;
24453;SDS011;12627;50.860;5.714;2022-12-07T11:38:35;7.75;;;5.80;;
24453;SDS011;12627;50.860;5.714;2022-12-07T11:41:09;7.47;;;5.53;;
24453;SDS011;12627;50.860;5.714;2022-12-07T11:43:48;7.77;;;6.10;;
24453;SDS011;12627;50.860;5.714;2022-12-07T11:46:22;8.35;;;5.65;;
24453;SDS011;12627;50.860;5.714;2022-12-07T11:48:54;7.37;;;5.87;;
24453;SDS011;12627;50.860;5.714;2022-12-07T11:51:25;8.15;;;5.20;;
24453;SDS011;12627;50.860;5.714;2022-12-07T11:53:55;9.30;;;5.45;;
24453;SDS011;12627;50.860;5.714;2022-12-07T11:56:27;9.30;;;5.93;;
24453;SDS011;12627;50.860;5.714;2022-12-07T11:58:57;8.50;;;6.00;;
24453;SDS011;12627;50.860;5.714;2022-12-07T12:01:32;6.60;;;5.17;;
24453;SDS011;12627;50.860;5.714;2022-12-07T12:04:16;7.40;;;4.77;;
24453;SDS011;12627;50.860;5.714;2022-12-07T12:06:53;11.27;;;5.33;;
24453;SDS011;12627;50.860;5.714;2022-12-07T12:09:30;8.53;;;6.10;;
24453;SDS011;12627;50.860;5.714;2022-12-07T12:12:04;12.17;;;6.37;;
24453;SDS011;12627;50.860;5.714;2022-12-07T12:14:46;9.07;;;5.60;;
24453;SDS011;12627;50.860;5.714;2022-12-07T12:20:35;9.60;;;5.82;;
24453;SDS011;12627;50.860;5.714;2022-12-07T12:23:09;8.85;;;5.30;;
24453;SDS011;12627;50.860;5.714;2022-12-07T12:25:40;7.50;;;5.35;;
24453;SDS011;12627;50.860;5.714;2022-12-07T12:28:18;12.00;;;6.00;;
24453;SDS011;12627;50.860;5.714;2022-12-07T12:33:42;10.35;;;6.20;;
24453;SDS011;12627;50.860;5.714;2022-12-07T12:36:20;10.17;;;6.83;;
24453;SDS011;12627;50.860;5.714;2022-12-07T12:41:51;7.93;;;5.23;;
24453;SDS011;12627;50.860;5.714;2022-12-07T12:44:42;10.10;;;6.90;;
24453;SDS011;12627;50.860;5.714;2022-12-07T12:47:51;10.93;;;5.70;;
24453;SDS011;12627;50.860;5.714;2022-12-07T12:50:27;7.63;;;5.13;;
24453;SDS011;12627;50.860;5.714;2022-12-07T12:53:14;7.10;;;5.53;;
24453;SDS011;12627;50.860;5.714;2022-12-07T12:56:01;8.82;;;6.13;;
24453;SDS011;12627;50.860;5.714;2022-12-07T12:58:42;7.87;;;5.87;;
24453;SDS011;12627;50.860;5.714;2022-12-07T13:13:33;7.57;;;5.33;;
24453;SDS011;12627;50.860;5.714;2022-12-07T13:22:35;7.60;;;4.63;;
24453;SDS011;12627;50.860;5.714;2022-12-07T13:25:11;8.80;;;5.18;;
24453;SDS011;12627;50.860;5.714;2022-12-07T13:27:46;7.37;;;5.03;;
24453;SDS011;12627;50.860;5.714;2022-12-07T13:30:21;6.87;;;4.47;;
24453;SDS011;12627;50.860;5.714;2022-12-07T13:32:52;7.20;;;4.87;;
24453;SDS011;12627;50.860;5.714;2022-12-07T13:35:31;5.68;;;4.72;;
24453;SDS011;12627;50.860;5.714;2022-12-07T13:38:01;10.73;;;4.30;;
24453;SDS011;12627;50.860;5.714;2022-12-07T13:40:31;8.23;;;4.70;;
24453;SDS011;12627;50.860;5.714;2022-12-07T13:43:01;7.77;;;4.80;;
24453;SDS011;12627;50.860;5.714;2022-12-07T13:45:31;8.57;;;5.07;;
24453;SDS011;12627;50.860;5.714;2022-12-07T13:48:16;8.13;;;6.07;;
24453;SDS011;12627;50.860;5.714;2022-12-07T13:50:52;9.93;;;5.43;;
24453;SDS011;12627;50.860;5.714;2022-12-07T13:53:21;6.37;;;4.10;;
24453;SDS011;12627;50.860;5.714;2022-12-07T13:55:49;8.68;;;3.70;;
24453;SDS011;12627;50.860;5.714;2022-12-07T13:58:26;6.60;;;4.03;;
24453;SDS011;12627;50.860;5.714;2022-12-07T14:00:57;5.10;;;3.70;;
24453;SDS011;12627;50.860;5.714;2022-12-07T14:03:27;3.83;;;3.30;;
24453;SDS011;12627;50.860;5.714;2022-12-07T14:08:50;10.07;;;4.17;;
24453;SDS011;12627;50.860;5.714;2022-12-07T14:11:32;8.10;;;4.13;;
24453;SDS011;12627;50.860;5.714;2022-12-07T14:14:05;8.93;;;5.00;;
24453;SDS011;12627;50.860;5.714;2022-12-07T14:16:40;6.83;;;3.87;;
24453;SDS011;12627;50.860;5.714;2022-12-07T14:19:37;7.50;;;4.83;;
24453;SDS011;12627;50.860;5.714;2022-12-07T14:22:18;12.53;;;6.80;;
24453;SDS011;12627;50.860;5.714;2022-12-07T14:24:58;6.80;;;4.13;;
24453;SDS011;12627;50.860;5.714;2022-12-07T14:27:53;5.80;;;3.87;;
24453;SDS011;12627;50.860;5.714;2022-12-07T14:30:25;6.10;;;3.93;;
24453;SDS011;12627;50.860;5.714;2022-12-07T14:32:54;9.23;;;2.70;;
24453;SDS011;12627;50.860;5.714;2022-12-07T14:35:25;4.80;;;2.63;;
24453;SDS011;12627;50.860;5.714;2022-12-07T14:37:53;2.80;;;1.90;;
24453;SDS011;12627;50.860;5.714;2022-12-07T14:40:21;7.60;;;1.60;;
24453;SDS011;12627;50.860;5.714;2022-12-07T14:42:50;5.30;;;2.00;;
24453;SDS011;12627;50.860;5.714;2022-12-07T14:45:21;7.03;;;2.03;;
